Time;durP1;ratioP1;P1;durP2;ratioP2;P2;SDS_P1;SDS_P2;PMS_P1;PMS_P2;Temp;Humidity;BMP_temperature;BMP_pressure;BME280_temperature;BME280_humidity;BME280_pressure;Samples;Min_cycle;Max_cycle;Signal;HPM_P1;HPM_P2
2021/07/18 00:02:25;;;;;;;9.35;7.43;;;;;;;21.03;66.66;97831.91;5041033;28;20037;-77
2021/07/18 00:04:52;;;;;;;7.55;6.50;;;;;;;21.04;66.41;97824.75;5015469;28;20059;-78
2021/07/18 00:07:18;;;;;;;9.73;7.45;;;;;;;20.98;66.15;97826.72;5046761;28;20298;-78
2021/07/18 00:09:43;;;;;;;9.43;7.25;;;;;;;20.92;66.64;97833.19;5030340;28;20037;-77
2021/07/18 00:12:08;;;;;;;10.77;7.00;;;;;;;20.89;66.33;97831.94;5047957;28;20478;-78
2021/07/18 00:14:34;;;;;;;8.05;7.22;;;;;;;20.90;66.60;97827.41;5048455;28;20033;-77
2021/07/18 00:16:59;;;;;;;9.52;6.93;;;;;;;20.90;66.69;97822.13;5020432;28;20520;-78
2021/07/18 00:19:25;;;;;;;9.98;7.32;;;;;;;20.91;66.62;97821.81;5045679;28;20058;-78
2021/07/18 00:21:50;;;;;;;11.82;7.80;;;;;;;20.93;66.53;97819.66;5046596;28;20067;-77
2021/07/18 00:24:15;;;;;;;8.85;7.38;;;;;;;20.94;66.33;97815.16;5050924;28;20364;-78
2021/07/18 00:26:41;;;;;;;8.80;7.60;;;;;;;20.89;66.72;97818.69;5012560;28;20036;-78
2021/07/18 00:29:06;;;;;;;8.13;7.03;;;;;;;20.97;66.23;97817.19;5046332;28;20037;-78
2021/07/18 00:31:31;;;;;;;6.90;6.03;;;;;;;20.97;66.26;97814.56;5049705;28;20029;-77
2021/07/18 00:33:57;;;;;;;6.45;5.80;;;;;;;20.95;66.24;97816.72;5032289;28;20074;-78
2021/07/18 00:36:22;;;;;;;7.65;5.90;;;;;;;20.97;66.29;97819.06;5030360;28;20519;-77
2021/07/18 00:38:47;;;;;;;6.00;5.25;;;;;;;20.92;65.81;97817.31;5048491;28;20029;-78
2021/07/18 00:41:13;;;;;;;8.18;6.93;;;;;;;20.66;66.37;97819.69;5047996;28;20511;-78
2021/07/18 00:43:38;;;;;;;9.68;6.13;;;;;;;20.57;66.64;97819.56;5046631;28;20040;-78
2021/07/18 00:46:04;;;;;;;9.40;6.88;;;;;;;20.55;66.65;97830.44;5050005;28;20040;-78
2021/07/18 00:48:30;;;;;;;8.52;7.65;;;;;;;20.35;67.30;97826.28;5031310;28;20408;-78
2021/07/18 00:50:57;;;;;;;9.70;8.70;;;;;;;20.29;67.37;97824.81;5031602;28;20025;-78
2021/07/18 00:53:22;;;;;;;10.35;8.23;;;;;;;20.31;67.30;97817.38;5030964;28;20657;-78
2021/07/18 00:55:48;;;;;;;10.93;8.32;;;;;;;20.28;67.59;97820.59;5048152;28;20064;-78
2021/07/18 00:58:14;;;;;;;12.80;9.55;;;;;;;20.18;68.13;97820.78;5029295;28;20472;-77
2021/07/18 01:00:39;;;;;;;10.13;8.52;;;;;;;20.10;68.20;97821.44;5028404;28;20060;-78
2021/07/18 01:03:05;;;;;;;10.57;7.78;;;;;;;19.99;68.21;97824.25;5028371;28;20033;-78
2021/07/18 01:05:30;;;;;;;13.80;7.35;;;;;;;19.95;68.21;97825.91;5047098;28;20577;-78
2021/07/18 01:07:56;;;;;;;9.70;6.57;;;;;;;19.88;68.26;97822.84;5047998;28;20552;-77
2021/07/18 01:10:22;;;;;;;8.15;5.78;;;;;;;19.88;68.53;97827.34;5031327;28;20032;-77
2021/07/18 01:12:48;;;;;;;6.72;5.70;;;;;;;19.73;69.29;97815.91;5031331;28;20060;-78
2021/07/18 01:15:14;;;;;;;8.13;5.78;;;;;;;19.77;68.88;97830.13;5028415;28;20384;-77
2021/07/18 01:17:40;;;;;;;9.32;6.75;;;;;;;19.80;68.39;97820.88;5024863;28;20033;-78
2021/07/18 01:20:09;;;;;;;7.22;6.32;;;;;;;19.74;68.26;97820.16;5031190;28;20471;-78
2021/07/18 01:22:34;;;;;;;6.25;5.53;;;;;;;19.80;68.27;97815.59;5033926;28;20361;-77
2021/07/18 01:25:01;;;;;;;6.15;5.55;;;;;;;19.74;68.23;97816.69;5043801;28;20037;-78
2021/07/18 01:27:30;;;;;;;9.32;6.55;;;;;;;19.57;68.43;97812.72;5028579;28;20068;-78
2021/07/18 01:29:56;;;;;;;6.22;5.60;;;;;;;19.65;68.57;97820.00;5027660;28;20507;-78
2021/07/18 01:32:22;;;;;;;6.82;5.20;;;;;;;19.58;68.69;97816.91;5019201;28;20052;-78
2021/07/18 01:34:48;;;;;;;7.13;5.22;;;;;;;19.54;68.54;97821.22;5042128;28;20029;-78
2021/07/18 01:37:13;;;;;;;5.55;4.45;;;;;;;19.57;68.27;97825.94;5030707;28;20052;-78
2021/07/18 01:39:42;;;;;;;8.25;5.07;;;;;;;19.54;68.16;97823.88;5031542;28;20076;-78
2021/07/18 01:42:08;;;;;;;5.10;4.60;;;;;;;19.58;68.30;97816.91;5049614;28;20032;-78
2021/07/18 01:44:33;;;;;;;5.25;4.60;;;;;;;19.53;68.14;97817.00;5066949;28;20676;-77
2021/07/18 01:46:58;;;;;;;6.10;4.70;;;;;;;19.49;67.72;97810.72;5068148;28;20135;-77
2021/07/18 01:49:24;;;;;;;4.63;4.13;;;;;;;19.47;67.50;97812.88;5051953;28;20086;-78
2021/07/18 01:51:49;;;;;;;6.03;4.13;;;;;;;19.48;67.54;97819.72;5052016;28;20044;-78
2021/07/18 01:54:15;;;;;;;7.20;3.97;;;;;;;19.41;67.40;97816.66;5031617;28;20061;-78
2021/07/18 01:56:41;;;;;;;5.15;3.97;;;;;;;19.36;67.50;97811.44;5033788;28;20119;-78
2021/07/18 01:59:06;;;;;;;5.60;3.55;;;;;;;19.36;67.58;97819.38;5051498;28;20194;-78
2021/07/18 02:01:32;;;;;;;5.43;4.05;;;;;;;19.32;67.13;97816.50;5014511;28;20037;-78
2021/07/18 02:03:59;;;;;;;5.35;4.00;;;;;;;19.32;67.18;97810.44;5048566;28;20029;-77
2021/07/18 02:06:25;;;;;;;4.65;3.70;;;;;;;19.23;67.31;97805.81;5052862;28;20116;-78
2021/07/18 02:08:56;;;;;;;3.90;3.47;;;;;;;19.07;67.24;97802.59;5051119;28;20249;-78
2021/07/18 02:11:22;;;;;;;4.72;3.20;;;;;;;19.19;67.72;97804.81;5016955;28;20391;-78
2021/07/18 02:13:49;;;;;;;5.82;3.95;;;;;;;19.21;67.32;97801.88;5050835;28;20029;-78
2021/07/18 02:16:14;;;;;;;4.70;3.83;;;;;;;19.19;67.45;97804.81;5050828;28;20037;-78
2021/07/18 02:18:41;;;;;;;7.25;3.75;;;;;;;19.06;68.16;97811.56;5031220;28;20044;-78
2021/07/18 02:21:07;;;;;;;4.30;3.20;;;;;;;19.00;68.25;97807.41;5033138;28;20408;-78
2021/07/18 02:23:32;;;;;;;7.03;3.30;;;;;;;19.01;68.07;97803.72;5043373;28;20036;-77
2021/07/18 02:25:58;;;;;;;5.13;3.33;;;;;;;19.09;67.72;97805.72;5030850;28;20033;-77
2021/07/18 02:28:23;;;;;;;4.78;3.53;;;;;;;19.06;67.44;97805.50;5030720;28;20025;-77
2021/07/18 02:30:48;;;;;;;4.70;3.97;;;;;;;19.04;67.61;97805.00;5030492;28;20052;-78
2021/07/18 02:33:14;;;;;;;4.45;3.17;;;;;;;19.04;67.70;97803.16;5029656;28;20048;-77
2021/07/18 02:35:39;;;;;;;4.47;3.33;;;;;;;19.00;67.30;97806.63;5033685;28;20379;-78
2021/07/18 02:38:05;;;;;;;5.65;3.35;;;;;;;18.98;67.92;97804.28;5051363;28;20587;-78
2021/07/18 02:40:30;;;;;;;5.63;3.58;;;;;;;18.99;67.73;97797.94;5049743;28;20433;-77
2021/07/18 02:42:56;;;;;;;5.63;3.80;;;;;;;19.03;67.14;97790.25;5012580;28;20037;-77
2021/07/18 02:45:23;;;;;;;6.50;3.20;;;;;;;19.09;66.70;97799.69;5049853;28;20495;-77
2021/07/18 02:47:49;;;;;;;5.05;2.95;;;;;;;19.11;66.47;97786.16;5032140;28;20037;-77
2021/07/18 02:50:20;;;;;;;3.72;2.63;;;;;;;19.15;66.41;97793.25;5050118;28;20103;-77
2021/07/18 02:52:46;;;;;;;4.45;2.70;;;;;;;19.17;65.67;97788.47;5050670;28;20033;-77
2021/07/18 02:55:13;;;;;;;4.63;3.05;;;;;;;19.02;66.96;97783.38;5033178;28;20024;-77
2021/07/18 02:57:38;;;;;;;4.18;3.47;;;;;;;18.89;67.33;97783.00;5033755;28;20091;-78
2021/07/18 03:00:08;;;;;;;4.43;3.30;;;;;;;18.64;68.10;97778.00;5066532;28;20033;-78
2021/07/18 03:02:33;;;;;;;4.30;3.28;;;;;;;18.68;68.25;97774.53;5049889;28;20043;-77
2021/07/18 03:04:59;;;;;;;6.65;3.40;;;;;;;18.55;68.48;97774.44;5030058;28;20033;-78
2021/07/18 03:07:24;;;;;;;3.58;2.92;;;;;;;18.53;68.56;97775.50;5036436;28;20537;-77
2021/07/18 03:09:49;;;;;;;4.35;3.38;;;;;;;18.44;68.61;97769.28;5048054;28;20041;-77
2021/07/18 03:12:15;;;;;;;4.25;3.50;;;;;;;18.36;68.92;97777.03;5049280;28;20028;-77
2021/07/18 03:14:40;;;;;;;4.57;3.30;;;;;;;18.29;69.26;97777.34;5032828;28;20029;-77
2021/07/18 03:17:06;;;;;;;5.30;3.08;;;;;;;18.25;69.43;97784.22;5048746;28;20634;-77
2021/07/18 03:19:31;;;;;;;5.88;3.10;;;;;;;18.32;68.81;97782.84;5032075;28;20068;-77
2021/07/18 03:21:56;;;;;;;5.65;3.50;;;;;;;18.24;68.96;97785.31;5032669;28;20487;-77
2021/07/18 03:24:22;;;;;;;4.68;3.25;;;;;;;18.24;69.26;97772.91;5030763;28;20131;-77
2021/07/18 03:26:47;;;;;;;4.22;3.13;;;;;;;18.20;68.96;97773.72;5050702;28;20044;-77
2021/07/18 03:29:12;;;;;;;4.07;3.03;;;;;;;18.28;68.64;97771.31;5030354;28;20061;-77
2021/07/18 03:31:38;;;;;;;5.38;3.50;;;;;;;18.21;69.04;97777.94;5045298;28;20034;-78
2021/07/18 03:34:03;;;;;;;4.25;2.92;;;;;;;18.12;69.21;97778.56;5016375;28;20460;-77
2021/07/18 03:36:29;;;;;;;5.72;2.90;;;;;;;18.03;69.31;97777.59;5048807;28;20479;-78
2021/07/18 03:38:57;;;;;;;3.80;2.95;;;;;;;18.02;69.45;97776.00;5050528;28;20086;-77
2021/07/18 03:41:22;;;;;;;4.72;3.55;;;;;;;17.82;70.24;97776.16;5032782;28;20203;-77
2021/07/18 03:43:48;;;;;;;7.15;3.33;;;;;;;17.91;69.87;97775.31;5032584;28;20021;-77
2021/07/18 03:46:14;;;;;;;7.55;3.10;;;;;;;17.95;69.75;97778.19;5049384;28;20527;-78
2021/07/18 03:48:40;;;;;;;4.88;3.35;;;;;;;18.00;69.68;97780.78;5049064;28;20040;-78
2021/07/18 03:51:06;;;;;;;4.47;3.03;;;;;;;18.05;69.31;97782.59;5032427;28;20021;-78
2021/07/18 03:53:31;;;;;;;6.85;3.47;;;;;;;18.03;69.19;97780.22;5017789;28;20017;-78
2021/07/18 03:55:56;;;;;;;5.18;3.30;;;;;;;18.01;69.37;97782.38;5058972;28;20054;-77
2021/07/18 03:58:22;;;;;;;4.47;3.00;;;;;;;17.98;69.33;97782.91;5049098;28;20123;-78
2021/07/18 04:00:47;;;;;;;5.45;3.10;;;;;;;17.98;69.48;97772.38;5049707;28;20537;-77
2021/07/18 04:03:12;;;;;;;4.70;2.67;;;;;;;17.96;69.49;97777.13;5030067;28;20024;-77
2021/07/18 04:05:38;;;;;;;3.50;2.63;;;;;;;18.02;69.30;97789.19;5049628;28;20036;-78
2021/07/18 04:08:04;;;;;;;4.07;3.15;;;;;;;18.00;69.19;97783.41;5047554;28;20029;-77
2021/07/18 04:10:29;;;;;;;4.05;2.70;;;;;;;18.02;69.39;97794.47;5031859;28;20516;-78
2021/07/18 04:12:57;;;;;;;4.10;3.20;;;;;;;18.04;69.58;97784.41;5030381;28;20083;-78
2021/07/18 04:15:23;;;;;;;4.15;3.17;;;;;;;18.10;69.14;97796.50;5015985;28;20033;-77
2021/07/18 04:17:48;;;;;;;4.63;3.35;;;;;;;18.08;69.07;97803.91;5047194;28;20048;-77
2021/07/18 04:20:14;;;;;;;5.57;3.03;;;;;;;18.11;68.95;97797.28;5025904;28;20128;-77
2021/07/18 04:22:40;;;;;;;3.75;3.00;;;;;;;18.09;69.46;97802.81;5031380;28;20059;-78
2021/07/18 04:25:06;;;;;;;3.72;2.80;;;;;;;18.17;69.06;97793.53;5008795;28;20018;-77
2021/07/18 04:27:31;;;;;;;6.38;2.90;;;;;;;18.24;69.06;97790.59;5048379;28;20107;-77
2021/07/18 04:29:56;;;;;;;4.70;3.10;;;;;;;18.30;68.74;97784.19;5045066;28;20025;-77
2021/07/18 04:32:22;;;;;;;3.10;2.60;;;;;;;18.33;68.64;97794.16;5047865;28;20257;-78
2021/07/18 04:34:47;;;;;;;3.58;2.92;;;;;;;18.33;69.00;97794.16;5031519;28;20025;-77
2021/07/18 04:37:12;;;;;;;5.07;2.67;;;;;;;18.35;68.97;97792.03;5027934;28;20029;-77
2021/07/18 04:39:39;;;;;;;5.20;2.92;;;;;;;18.44;68.65;97794.84;5047043;28;20040;-77
2021/07/18 04:42:05;;;;;;;9.15;3.30;;;;;;;18.40;68.48;97797.25;5027817;28;20061;-77
2021/07/18 04:44:30;;;;;;;3.45;2.80;;;;;;;18.43;68.78;97798.56;5021011;28;20465;-78
2021/07/18 04:46:56;;;;;;;4.78;2.70;;;;;;;18.42;68.97;97802.25;5028349;28;20121;-77
2021/07/18 04:49:23;;;;;;;4.45;3.17;;;;;;;18.43;68.87;97806.47;5018139;28;20057;-77
2021/07/18 04:51:49;;;;;;;4.10;2.70;;;;;;;18.47;68.92;97804.84;5025178;28;20388;-77
2021/07/18 04:54:14;;;;;;;7.30;2.63;;;;;;;18.59;68.78;97812.34;5016358;28;20196;-77
2021/07/18 04:56:40;;;;;;;5.88;2.85;;;;;;;18.68;68.04;97800.16;5025634;28;20031;-77
2021/07/18 04:59:06;;;;;;;8.07;3.20;;;;;;;18.72;68.27;97811.69;5061274;28;20055;-77
2021/07/18 05:01:31;;;;;;;5.50;2.65;;;;;;;18.72;68.13;97806.41;5046216;28;20033;-77
2021/07/18 05:03:56;;;;;;;3.85;3.10;;;;;;;18.77;68.62;97813.50;5046918;28;20039;-77
2021/07/18 05:06:22;;;;;;;4.38;2.80;;;;;;;18.81;68.11;97810.00;5047049;28;20051;-77
2021/07/18 05:08:47;;;;;;;4.75;2.85;;;;;;;18.76;68.23;97812.69;5063812;28;20116;-77
2021/07/18 05:11:12;;;;;;;5.00;3.15;;;;;;;18.84;68.29;97816.59;5046895;28;20455;-78
2021/07/18 05:13:38;;;;;;;4.15;2.60;;;;;;;18.97;67.84;97810.63;5044745;28;20464;-77
2021/07/18 05:16:03;;;;;;;4.78;2.50;;;;;;;18.97;67.89;97815.13;5043353;28;20056;-77
2021/07/18 05:18:29;;;;;;;3.78;3.10;;;;;;;18.98;67.95;97816.69;5047685;28;20547;-78
2021/07/18 05:20:54;;;;;;;4.38;3.08;;;;;;;19.06;67.59;97808.16;5016899;28;20565;-78
2021/07/18 05:23:20;;;;;;;5.90;2.30;;;;;;;18.79;68.27;97817.41;5049318;28;20118;-77
2021/07/18 05:25:45;;;;;;;3.42;2.53;;;;;;;18.95;68.07;97815.38;5047329;28;20033;-78
2021/07/18 05:28:11;;;;;;;3.55;2.28;;;;;;;18.88;68.33;97815.75;5044298;28;20381;-78
2021/07/18 05:30:36;;;;;;;5.60;2.58;;;;;;;19.03;68.13;97824.56;5050803;28;20033;-78
2021/07/18 05:33:02;;;;;;;11.50;3.40;;;;;;;19.05;68.10;97819.78;5033338;28;20032;-78
2021/07/18 05:35:27;;;;;;;3.60;2.40;;;;;;;19.12;67.96;97822.84;5032733;28;20121;-77
2021/07/18 05:37:53;;;;;;;3.55;2.53;;;;;;;19.18;67.90;97819.06;5050973;28;20068;-78
2021/07/18 05:40:18;;;;;;;5.57;2.67;;;;;;;19.20;67.85;97827.50;5050923;28;20120;-78
2021/07/18 05:42:43;;;;;;;3.17;2.38;;;;;;;19.03;67.87;97816.63;5034380;28;20029;-77
2021/07/18 05:45:11;;;;;;;3.45;2.38;;;;;;;19.21;67.32;97833.53;5030569;28;20026;-77
2021/07/18 05:47:37;;;;;;;3.15;2.00;;;;;;;19.40;67.41;97830.94;5047780;28;20421;-77
2021/07/18 05:50:04;;;;;;;3.42;2.42;;;;;;;19.26;67.36;97818.44;5050990;28;20465;-77
2021/07/18 05:52:30;;;;;;;5.05;3.00;;;;;;;19.23;67.60;97821.66;5033949;28;20029;-77
2021/07/18 05:54:56;;;;;;;3.83;2.20;;;;;;;19.28;67.49;97818.16;5034139;28;20411;-77
2021/07/18 05:57:21;;;;;;;4.13;2.72;;;;;;;19.41;67.15;97822.72;5034218;28;20025;-78
2021/07/18 05:59:47;;;;;;;4.63;2.50;;;;;;;19.44;66.99;97822.16;5015152;28;20534;-77
2021/07/18 06:02:15;;;;;;;4.65;3.17;;;;;;;19.55;66.82;97833.38;5032960;28;20021;-78
2021/07/18 06:04:43;;;;;;;3.20;2.90;;;;;;;19.60;66.54;97830.66;5015314;28;20526;-77
2021/07/18 06:07:09;;;;;;;2.97;2.20;;;;;;;19.59;66.44;97830.94;5041210;28;20029;-77
2021/07/18 06:09:35;;;;;;;4.00;2.47;;;;;;;19.71;66.04;97833.91;5019437;28;20055;-77
2021/07/18 06:12:00;;;;;;;2.90;2.20;;;;;;;19.81;66.15;97835.66;5035195;28;20043;-77
2021/07/18 06:14:26;;;;;;;2.95;2.03;;;;;;;19.85;65.80;97839.28;5033940;28;20029;-77
2021/07/18 06:16:51;;;;;;;4.28;2.78;;;;;;;19.87;66.05;97839.78;5051906;28;20028;-78
2021/07/18 06:19:17;;;;;;;2.63;2.20;;;;;;;20.15;65.55;97842.50;5048205;28;20491;-78
2021/07/18 06:21:42;;;;;;;3.95;2.33;;;;;;;20.36;65.07;97835.03;5033734;28;20444;-77
2021/07/18 06:24:08;;;;;;;2.80;2.10;;;;;;;20.28;64.49;97846.25;5033537;28;20025;-77
2021/07/18 06:26:33;;;;;;;4.10;2.08;;;;;;;20.46;63.86;97845.41;4996891;28;20040;-77
2021/07/18 06:29:00;;;;;;;2.55;2.35;;;;;;;20.73;64.08;97839.41;5044476;28;20407;-77
2021/07/18 06:31:26;;;;;;;2.20;2.00;;;;;;;20.76;63.20;97833.50;5033281;28;20091;-77
2021/07/18 06:33:51;;;;;;;3.35;2.38;;;;;;;20.62;63.06;97842.50;5019947;28;20099;-77
2021/07/18 06:36:17;;;;;;;2.67;1.90;;;;;;;20.80;62.76;97843.50;5035029;28;20025;-77
2021/07/18 06:38:42;;;;;;;2.30;1.92;;;;;;;20.95;62.67;97841.31;5033569;28;20081;-77
2021/07/18 06:41:07;;;;;;;2.63;1.73;;;;;;;21.24;62.05;97839.44;5033303;28;20091;-77
2021/07/18 06:43:33;;;;;;;3.72;2.08;;;;;;;21.45;61.16;97842.41;5043870;28;20025;-77
2021/07/18 06:45:58;;;;;;;2.65;2.25;;;;;;;21.52;60.00;97842.81;5019496;28;20033;-77
2021/07/18 06:48:24;;;;;;;3.55;2.00;;;;;;;21.88;59.54;97839.34;5050255;28;20041;-77
2021/07/18 06:50:49;;;;;;;4.35;1.83;;;;;;;21.71;59.54;97834.69;5026327;28;20496;-77
2021/07/18 06:53:14;;;;;;;3.15;1.60;;;;;;;21.96;58.87;97832.53;5016825;28;20094;-77
2021/07/18 06:55:40;;;;;;;3.28;2.13;;;;;;;22.23;58.83;97844.88;5016610;28;20028;-77
2021/07/18 06:58:06;;;;;;;3.42;1.90;;;;;;;22.30;58.66;97839.16;5016238;28;20383;-77
2021/07/18 07:00:34;;;;;;;2.15;1.85;;;;;;;21.93;57.79;97839.22;5048071;28;20029;-77
2021/07/18 07:03:01;;;;;;;3.35;1.92;;;;;;;22.21;58.00;97847.06;5033884;28;20395;-77
2021/07/18 07:05:26;;;;;;;3.22;1.90;;;;;;;22.31;57.96;97840.72;5031176;28;20037;-77
2021/07/18 07:07:51;;;;;;;2.28;1.52;;;;;;;22.31;56.91;97844.16;5016312;28;20036;-77
2021/07/18 07:10:18;;;;;;;2.45;1.67;;;;;;;22.07;57.49;97855.06;5032791;28;20129;-77
2021/07/18 07:12:46;;;;;;;1.80;1.50;;;;;;;22.46;56.68;97858.91;5016590;28;20032;-77
2021/07/18 07:15:13;;;;;;;3.35;1.90;;;;;;;22.72;56.33;97851.06;5033277;28;20024;-77
2021/07/18 07:17:41;;;;;;;2.65;1.48;;;;;;;22.78;54.76;97849.03;5016187;28;20479;-77
2021/07/18 07:20:11;;;;;;;1.80;1.27;;;;;;;22.69;55.10;97851.66;5033155;28;20043;-77
2021/07/18 07:22:39;;;;;;;1.70;1.38;;;;;;;22.61;53.96;97861.16;5032489;28;20052;-77
2021/07/18 07:25:13;;;;;;;2.13;1.42;;;;;;;22.62;54.55;97852.09;5016438;28;20195;-77
2021/07/18 07:27:39;;;;;;;2.75;1.60;;;;;;;23.14;54.28;97853.38;5031983;28;20025;-77
2021/07/18 07:30:08;;;;;;;1.52;1.20;;;;;;;23.23;53.21;97854.16;5031392;28;20480;-77
2021/07/18 07:32:34;;;;;;;3.95;1.73;;;;;;;23.52;52.97;97847.47;5048730;28;20039;-77
2021/07/18 07:35:01;;;;;;;1.40;1.30;;;;;;;23.38;52.50;97850.28;5032281;28;20029;-77
2021/07/18 07:37:27;;;;;;;2.28;1.48;;;;;;;23.62;52.31;97857.03;5032300;28;20025;-77
2021/07/18 07:39:54;;;;;;;1.63;1.40;;;;;;;23.84;51.33;97856.88;5032075;28;20025;-77
2021/07/18 07:42:20;;;;;;;3.28;1.48;;;;;;;23.75;50.75;97848.88;5031775;28;20566;-77
2021/07/18 07:44:46;;;;;;;3.03;1.58;;;;;;;24.04;50.71;97847.47;5042182;28;20030;-76
2021/07/18 07:47:12;;;;;;;1.60;1.17;;;;;;;24.32;50.68;97849.75;5029914;28;20464;-77
2021/07/18 07:49:37;;;;;;;2.40;1.80;;;;;;;24.22;49.06;97839.44;5031969;28;20040;-77
2021/07/18 07:52:03;;;;;;;1.17;1.08;;;;;;;24.14;49.82;97850.88;5047868;28;20036;-77
2021/07/18 07:54:28;;;;;;;1.77;1.50;;;;;;;24.22;49.20;97850.09;5049791;28;20108;-77
2021/07/18 07:56:54;;;;;;;1.63;1.52;;;;;;;24.44;49.87;97847.19;5042780;28;20037;-77
2021/07/18 07:59:19;;;;;;;2.13;1.70;;;;;;;24.52;50.86;97852.81;5031911;28;20039;-77
2021/07/18 08:01:44;;;;;;;1.58;1.25;;;;;;;24.81;49.67;97849.41;5048085;28;20173;-77
2021/07/18 08:04:10;;;;;;;1.52;1.42;;;;;;;24.73;48.63;97844.91;5027143;28;20033;-77
2021/07/18 08:06:35;;;;;;;2.22;1.30;;;;;;;24.70;48.12;97848.22;5047111;28;20040;-77
2021/07/18 08:09:01;;;;;;;1.10;1.00;;;;;;;24.99;48.01;97842.91;5048167;28;20029;-76
2021/07/18 08:11:26;;;;;;;1.42;1.23;;;;;;;24.88;47.14;97844.34;5047166;28;20393;-76
2021/07/18 08:13:51;;;;;;;1.95;1.20;;;;;;;24.71;47.79;97857.75;5049642;28;20025;-77
2021/07/18 08:16:17;;;;;;;2.30;1.10;;;;;;;24.73;46.68;97848.38;5031333;28;20414;-76
2021/07/18 08:18:42;;;;;;;1.38;0.85;;;;;;;24.99;46.48;97842.13;5030948;28;20079;-77
2021/07/18 08:21:08;;;;;;;1.27;1.17;;;;;;;24.80;46.37;97853.97;5039508;28;20060;-76
2021/07/18 08:23:33;;;;;;;2.70;1.20;;;;;;;24.77;47.48;97849.28;5031198;28;20475;-77
2021/07/18 08:25:59;;;;;;;2.67;1.40;;;;;;;25.06;46.52;97839.72;5047377;28;20028;-77
2021/07/18 08:28:25;;;;;;;2.45;1.02;;;;;;;25.26;46.05;97842.75;5047582;28;20507;-76
2021/07/18 08:30:51;;;;;;;2.53;1.38;;;;;;;25.14;46.03;97841.56;5046710;28;20032;-77
2021/07/18 08:33:16;;;;;;;1.27;1.15;;;;;;;25.77;45.45;97833.56;5012479;28;20066;-76
2021/07/18 08:35:42;;;;;;;1.95;1.30;;;;;;;25.96;44.01;97830.44;5044963;28;20060;-77
2021/07/18 08:38:07;;;;;;;1.88;1.40;;;;;;;26.16;45.59;97841.38;5047086;28;20777;-77
2021/07/18 08:40:37;;;;;;;2.03;1.65;;;;;;;26.43;44.58;97831.97;5046840;28;20147;-77
2021/07/18 08:43:06;;;;;;;2.40;1.67;;;;;;;26.51;43.92;97831.09;5047008;28;20025;-77
2021/07/18 08:45:32;;;;;;;1.33;1.20;;;;;;;26.93;44.30;97834.66;5028104;28;20095;-76
2021/07/18 08:47:59;;;;;;;2.00;1.15;;;;;;;26.56;42.89;97829.28;5008799;28;20033;-77
2021/07/18 08:50:26;;;;;;;2.17;1.27;;;;;;;26.14;43.36;97825.69;5046008;28;20033;-77
2021/07/18 08:52:55;;;;;;;2.03;1.58;;;;;;;26.05;43.44;97829.56;5014442;28;20029;-77
2021/07/18 08:55:22;;;;;;;1.50;1.40;;;;;;;26.31;44.13;97831.94;5047191;28;20044;-77
2021/07/18 08:57:48;;;;;;;1.45;1.35;;;;;;;26.90;43.81;97828.09;5003932;28;20060;-77
2021/07/18 09:00:14;;;;;;;1.63;1.52;;;;;;;26.92;43.28;97820.50;5030568;28;20064;-76
2021/07/18 09:02:40;;;;;;;2.83;1.40;;;;;;;26.57;42.88;97828.97;5027190;28;20106;-77
2021/07/18 09:05:06;;;;;;;3.75;1.20;;;;;;;26.94;40.69;97829.00;5046405;28;20051;-76
2021/07/18 09:07:42;;;;;;;1.75;1.20;;;;;;;26.54;41.57;97832.28;5026811;28;20069;-77
2021/07/18 09:10:08;;;;;;;3.60;1.50;;;;;;;26.94;41.70;97826.31;5048129;28;20037;-77
2021/07/18 09:12:34;;;;;;;1.73;1.40;;;;;;;26.92;41.08;97820.50;5029926;28;20034;-77
2021/07/18 09:15:02;;;;;;;4.35;1.60;;;;;;;26.78;40.86;97828.09;5030812;28;20072;-77
2021/07/18 09:17:34;;;;;;;2.33;1.10;;;;;;;26.89;43.07;97831.88;5030474;28;20032;-76
2021/07/18 09:20:12;;;;;;;2.67;1.42;;;;;;;27.21;42.05;97824.81;5008574;28;20349;-77
2021/07/18 09:22:38;;;;;;;2.05;1.33;;;;;;;27.41;40.67;97828.47;5046797;28;20029;-77
2021/07/18 09:25:04;;;;;;;2.42;1.30;;;;;;;27.25;40.80;97839.06;5047206;28;20025;-77
2021/07/18 09:27:32;;;;;;;6.18;2.05;;;;;;;27.34;41.33;97824.81;5046570;28;20496;-76
2021/07/18 09:30:05;;;;;;;1.70;1.27;;;;;;;27.42;40.44;97827.34;5027926;28;20025;-77
2021/07/18 09:32:33;;;;;;;1.92;1.40;;;;;;;27.55;40.25;97828.06;5028900;28;20033;-76
2021/07/18 09:35:11;;;;;;;9.30;2.25;;;;;;;28.02;40.40;97816.75;5008527;28;20043;-77
2021/07/18 09:37:39;;;;;;;2.47;1.55;;;;;;;28.28;39.41;97818.13;5034861;28;20041;-77
2021/07/18 09:40:08;;;;;;;1.88;1.77;;;;;;;28.34;37.46;97824.81;5029937;28;20077;-77
2021/07/18 09:42:47;;;;;;;3.33;1.60;;;;;;;28.23;38.02;97817.63;5047829;28;20031;-77
2021/07/18 09:45:15;;;;;;;2.65;1.75;;;;;;;28.15;37.70;97813.97;5010618;28;20033;-77
2021/07/18 09:47:55;;;;;;;1.90;1.77;;;;;;;27.51;39.46;97816.50;5030879;28;20037;-77
2021/07/18 09:50:21;;;;;;;2.15;1.58;;;;;;;27.92;39.72;97808.44;5046100;28;20029;-77
2021/07/18 09:52:48;;;;;;;2.25;1.70;;;;;;;28.29;38.96;97808.19;5003872;28;20396;-77
2021/07/18 09:55:20;;;;;;;2.38;1.65;;;;;;;28.60;38.85;97810.13;5046720;28;20068;-76
2021/07/18 09:57:50;;;;;;;5.13;1.73;;;;;;;28.50;38.83;97799.91;5030544;28;20029;-77
2021/07/18 10:00:16;;;;;;;2.90;1.55;;;;;;;29.20;35.86;97801.88;5027143;28;20074;-76
2021/07/18 10:02:42;;;;;;;3.13;2.50;;;;;;;29.41;35.45;97803.44;5029397;28;20029;-77
2021/07/18 10:05:15;;;;;;;3.47;1.90;;;;;;;28.67;37.54;97801.44;5028922;28;20551;-76
2021/07/18 10:07:41;;;;;;;4.40;2.03;;;;;;;28.62;37.16;97799.03;5017348;28;20445;-77
2021/07/18 10:10:08;;;;;;;2.90;2.15;;;;;;;28.73;37.34;97798.16;5031013;28;20029;-77
2021/07/18 10:12:34;;;;;;;1.83;1.60;;;;;;;29.15;36.98;97796.75;5050058;28;20385;-77
2021/07/18 10:15:03;;;;;;;2.30;1.80;;;;;;;28.81;36.70;97807.16;5033774;28;20025;-77
2021/07/18 10:17:29;;;;;;;3.00;1.80;;;;;;;29.03;37.10;97796.88;5049571;28;20085;-76
2021/07/18 10:19:55;;;;;;;1.58;1.48;;;;;;;29.29;35.97;97794.38;5049737;28;20029;-77
2021/07/18 10:22:22;;;;;;;2.97;1.60;;;;;;;29.04;36.64;97799.19;5029988;28;20033;-77
2021/07/18 10:24:50;;;;;;;3.28;1.95;;;;;;;28.88;38.07;97793.13;5017476;28;20059;-77
2021/07/18 10:27:19;;;;;;;2.58;1.95;;;;;;;28.87;37.55;97784.28;5033392;28;20171;-77
2021/07/18 10:29:45;;;;;;;3.75;1.75;;;;;;;29.58;37.76;97786.91;5017060;28;20028;-77
2021/07/18 10:32:13;;;;;;;2.75;1.90;;;;;;;29.90;36.55;97785.94;5044503;28;20424;-77
2021/07/18 10:34:39;;;;;;;2.03;1.50;;;;;;;30.12;35.02;97779.78;5019598;28;20171;-77
2021/07/18 10:37:10;;;;;;;1.70;1.45;;;;;;;29.74;35.69;97781.44;5012271;28;20543;-77
2021/07/18 10:39:36;;;;;;;4.28;1.63;;;;;;;30.14;36.22;97785.56;5043644;28;20297;-77
2021/07/18 10:42:07;;;;;;;2.47;1.70;;;;;;;30.29;37.30;97780.44;5032298;28;20025;-76
2021/07/18 10:44:48;;;;;;;2.63;1.50;;;;;;;30.43;35.43;97788.75;5023450;28;20026;-77
2021/07/18 10:47:15;;;;;;;2.00;1.83;;;;;;;29.84;37.28;97783.56;5029032;28;20495;-77
2021/07/18 10:49:48;;;;;;;2.88;1.63;;;;;;;30.18;35.15;97775.69;5031141;28;20067;-76
2021/07/18 10:52:14;;;;;;;1.48;1.27;;;;;;;30.24;35.70;97773.47;5050241;28;20028;-77
2021/07/18 10:54:42;;;;;;;1.67;1.58;;;;;;;30.33;35.37;97768.63;5049651;28;20060;-77
2021/07/18 10:57:36;;;;;;;1.48;1.20;;;;;;;30.11;36.02;97769.41;5031840;28;20462;-77
2021/07/18 11:00:23;;;;;;;2.15;1.52;;;;;;;29.94;35.60;97767.97;5033139;28;20085;-76
2021/07/18 11:03:02;;;;;;;1.38;1.20;;;;;;;29.60;35.43;97763.16;5062917;28;20032;-76
2021/07/18 11:05:47;;;;;;;3.17;1.20;;;;;;;29.87;36.42;97771.34;5032395;28;20126;-77
2021/07/18 11:08:13;;;;;;;1.42;1.17;;;;;;;30.18;36.56;97750.75;5029623;28;20061;-76
2021/07/18 11:10:51;;;;;;;1.23;1.00;;;;;;;29.95;37.48;97761.47;5031109;28;20036;-77
2021/07/18 11:13:18;;;;;;;1.77;0.98;;;;;;;29.76;36.94;97760.38;5059392;28;20037;-77
2021/07/18 11:15:44;;;;;;;2.45;1.10;;;;;;;29.92;35.54;97757.63;5032700;28;20264;-76
2021/07/18 11:18:20;;;;;;;2.97;1.38;;;;;;;29.74;36.72;97757.25;5048332;28;20021;-77
2021/07/18 11:20:50;;;;;;;2.25;1.35;;;;;;;29.09;37.84;97760.63;5048002;28;20064;-77
2021/07/18 11:23:37;;;;;;;2.30;1.10;;;;;;;28.98;38.35;97759.59;5050252;28;20037;-77
2021/07/18 11:26:03;;;;;;;1.55;1.00;;;;;;;28.83;37.32;97766.59;5032481;28;20056;-77
2021/07/18 11:28:49;;;;;;;2.42;1.40;;;;;;;28.51;37.65;97769.31;5048662;28;20091;-78
2021/07/18 11:31:18;;;;;;;1.90;1.27;;;;;;;28.69;37.30;97761.72;5064831;28;20041;-77
2021/07/18 11:33:51;;;;;;;2.13;1.50;;;;;;;28.89;38.40;97752.56;5041862;28;20084;-78